Terminal Aerodrome Forecast
Issued by NWS Louisville, KY

Home | Current Version | Previous Version | Text Only | Print | Product List | Glossary On
Versions: 1 2 3 4 5 6 7 8 9 10 11 12 13 14 15
804
FTUS43 KLMK 071720
TAFBWG
TAF
KBWG 071720Z 0718/0818 22010G19KT P6SM SCT250
     FM080000 22005KT P6SM BKN060 BKN250
     FM080500 26005KT P6SM VCSH BKN040
     FM081200 28009KT P6SM -RASN OVC020=

USA.gov is the U.S. government's official web portal to all federal, state and local government web resources and services.